Terminal Aerodrome Forecast
Issued by NWS Pocatello, ID

Home | Current Version | Previous Version | Text Only | Print | Product List | Glossary On
Versions: 1 2 3 4 5 6 7 8 9 10 11 12 13 14 15 16 17
070
FTUS45 KPIH 302342 AAA
TAFBYI
TAF AMD
KBYI 302342Z 3100/3124 26020G34KT 3SM -SHRASN SCT010 OVC020
      TEMPO 3100/3102 3/4SM -SN BR OVC007
     FM310300 27015G28KT 4SM -SHSN BKN010 OVC020
     FM310600 28015G26KT 6SM -SHSN BKN010 OVC020
     FM312000 27015KT P6SM VCSH OVC020=

USA.gov is the U.S. government's official web portal to all federal, state and local government web resources and services.